sensor_id;sensor_type;location;lat;lon;timestamp;temperature;humidity
5334;DHT22;2689;50.954;7.116;2023-07-09T00:00:25;20.80;99.90
5334;DHT22;2689;50.954;7.116;2023-07-09T00:02:52;20.80;99.90
5334;DHT22;2689;50.954;7.116;2023-07-09T00:05:19;20.70;99.90
5334;DHT22;2689;50.954;7.116;2023-07-09T00:07:47;20.70;99.90
5334;DHT22;2689;50.954;7.116;2023-07-09T00:10:17;20.60;99.90
5334;DHT22;2689;50.954;7.116;2023-07-09T00:12:44;20.60;99.90
5334;DHT22;2689;50.954;7.116;2023-07-09T00:15:12;20.70;99.90
5334;DHT22;2689;50.954;7.116;2023-07-09T00:17:41;20.50;99.90
5334;DHT22;2689;50.954;7.116;2023-07-09T00:20:12;20.40;99.90
5334;DHT22;2689;50.954;7.116;2023-07-09T00:22:39;20.40;99.90
5334;DHT22;2689;50.954;7.116;2023-07-09T00:25:10;20.40;99.90
5334;DHT22;2689;50.954;7.116;2023-07-09T00:27:40;20.50;99.90
5334;DHT22;2689;50.954;7.116;2023-07-09T00:30:15;20.40;99.90
5334;DHT22;2689;50.954;7.116;2023-07-09T00:32:42;20.50;99.90
5334;DHT22;2689;50.954;7.116;2023-07-09T00:35:10;20.40;99.90
5334;DHT22;2689;50.954;7.116;2023-07-09T00:37:37;20.40;99.90
5334;DHT22;2689;50.954;7.116;2023-07-09T00:40:09;20.40;99.90
5334;DHT22;2689;50.954;7.116;2023-07-09T00:42:37;20.40;99.90
5334;DHT22;2689;50.954;7.116;2023-07-09T00:45:17;20.30;99.90
5334;DHT22;2689;50.954;7.116;2023-07-09T00:47:44;20.30;99.90
5334;DHT22;2689;50.954;7.116;2023-07-09T00:50:21;20.30;99.90
5334;DHT22;2689;50.954;7.116;2023-07-09T00:52:55;20.30;99.90
5334;DHT22;2689;50.954;7.116;2023-07-09T00:55:27;20.40;99.90
5334;DHT22;2689;50.954;7.116;2023-07-09T00:57:59;20.40;99.90
5334;DHT22;2689;50.954;7.116;2023-07-09T01:00:30;20.30;99.90
5334;DHT22;2689;50.954;7.116;2023-07-09T01:03:08;20.50;99.90
5334;DHT22;2689;50.954;7.116;2023-07-09T01:05:37;20.30;99.90
5334;DHT22;2689;50.954;7.116;2023-07-09T01:08:05;20.30;99.90
5334;DHT22;2689;50.954;7.116;2023-07-09T01:10:36;20.30;99.90
5334;DHT22;2689;50.954;7.116;2023-07-09T01:13:06;20.20;99.90
5334;DHT22;2689;50.954;7.116;2023-07-09T01:15:34;20.20;99.90
5334;DHT22;2689;50.954;7.116;2023-07-09T01:18:03;20.20;99.90
5334;DHT22;2689;50.954;7.116;2023-07-09T01:20:30;20.20;99.90
5334;DHT22;2689;50.954;7.116;2023-07-09T01:22:58;20.20;99.90
5334;DHT22;2689;50.954;7.116;2023-07-09T01:25:27;20.20;99.90
5334;DHT22;2689;50.954;7.116;2023-07-09T01:27:55;20.20;99.90
5334;DHT22;2689;50.954;7.116;2023-07-09T01:30:28;20.30;99.90
5334;DHT22;2689;50.954;7.116;2023-07-09T01:32:58;20.20;99.90
5334;DHT22;2689;50.954;7.116;2023-07-09T01:35:27;20.20;99.90
5334;DHT22;2689;50.954;7.116;2023-07-09T01:37:56;20.20;99.90
5334;DHT22;2689;50.954;7.116;2023-07-09T01:40:25;20.20;99.90
5334;DHT22;2689;50.954;7.116;2023-07-09T01:42:53;20.10;99.90
5334;DHT22;2689;50.954;7.116;2023-07-09T01:45:24;20.10;99.90
5334;DHT22;2689;50.954;7.116;2023-07-09T01:47:51;20.10;99.90
5334;DHT22;2689;50.954;7.116;2023-07-09T01:50:19;20.10;99.90
5334;DHT22;2689;50.954;7.116;2023-07-09T01:52:46;20.10;99.90
5334;DHT22;2689;50.954;7.116;2023-07-09T01:55:15;20.10;99.90
5334;DHT22;2689;50.954;7.116;2023-07-09T01:57:44;20.00;99.90
5334;DHT22;2689;50.954;7.116;2023-07-09T02:00:14;20.00;99.90
5334;DHT22;2689;50.954;7.116;2023-07-09T02:02:41;20.00;99.90
5334;DHT22;2689;50.954;7.116;2023-07-09T02:05:10;20.00;99.90
5334;DHT22;2689;50.954;7.116;2023-07-09T02:07:37;20.00;99.90
5334;DHT22;2689;50.954;7.116;2023-07-09T02:10:05;20.00;99.90
5334;DHT22;2689;50.954;7.116;2023-07-09T02:12:32;20.00;99.90
5334;DHT22;2689;50.954;7.116;2023-07-09T02:15:00;19.90;99.90
5334;DHT22;2689;50.954;7.116;2023-07-09T02:17:28;19.90;99.90
5334;DHT22;2689;50.954;7.116;2023-07-09T02:19:55;19.90;99.90
5334;DHT22;2689;50.954;7.116;2023-07-09T02:22:22;19.90;99.90
5334;DHT22;2689;50.954;7.116;2023-07-09T02:24:48;19.80;99.90
5334;DHT22;2689;50.954;7.116;2023-07-09T02:27:19;19.80;99.90
5334;DHT22;2689;50.954;7.116;2023-07-09T02:29:47;19.80;99.90
5334;DHT22;2689;50.954;7.116;2023-07-09T02:32:18;19.80;99.90
5334;DHT22;2689;50.954;7.116;2023-07-09T02:34:45;19.70;99.90
5334;DHT22;2689;50.954;7.116;2023-07-09T02:37:15;19.80;99.90
5334;DHT22;2689;50.954;7.116;2023-07-09T02:39:43;19.70;99.90
5334;DHT22;2689;50.954;7.116;2023-07-09T02:42:10;19.70;99.90
5334;DHT22;2689;50.954;7.116;2023-07-09T02:44:38;19.70;99.90
5334;DHT22;2689;50.954;7.116;2023-07-09T02:47:05;19.70;99.90
5334;DHT22;2689;50.954;7.116;2023-07-09T02:49:34;19.70;99.90
5334;DHT22;2689;50.954;7.116;2023-07-09T02:52:01;19.60;99.90
5334;DHT22;2689;50.954;7.116;2023-07-09T02:54:27;19.70;99.90
5334;DHT22;2689;50.954;7.116;2023-07-09T02:56:54;19.70;99.90
5334;DHT22;2689;50.954;7.116;2023-07-09T02:59:21;19.60;99.90
5334;DHT22;2689;50.954;7.116;2023-07-09T03:01:48;19.60;99.90
5334;DHT22;2689;50.954;7.116;2023-07-09T03:04:15;19.60;99.90
5334;DHT22;2689;50.954;7.116;2023-07-09T03:06:44;19.60;99.90
5334;DHT22;2689;50.954;7.116;2023-07-09T03:09:10;19.60;99.90
5334;DHT22;2689;50.954;7.116;2023-07-09T03:11:38;19.60;99.90
5334;DHT22;2689;50.954;7.116;2023-07-09T03:14:04;19.60;99.90
5334;DHT22;2689;50.954;7.116;2023-07-09T03:16:33;20.00;99.90
5334;DHT22;2689;50.954;7.116;2023-07-09T03:19:00;19.50;99.90
5334;DHT22;2689;50.954;7.116;2023-07-09T03:21:29;19.50;99.90
5334;DHT22;2689;50.954;7.116;2023-07-09T03:23:57;19.50;99.90
5334;DHT22;2689;50.954;7.116;2023-07-09T03:26:24;19.40;99.90
5334;DHT22;2689;50.954;7.116;2023-07-09T03:28:52;19.40;99.90
5334;DHT22;2689;50.954;7.116;2023-07-09T03:31:19;19.40;99.90
5334;DHT22;2689;50.954;7.116;2023-07-09T03:33:46;19.40;99.90
5334;DHT22;2689;50.954;7.116;2023-07-09T03:36:14;19.50;99.90
5334;DHT22;2689;50.954;7.116;2023-07-09T03:38:41;19.40;99.90
5334;DHT22;2689;50.954;7.116;2023-07-09T03:41:09;19.40;99.90
5334;DHT22;2689;50.954;7.116;2023-07-09T03:43:36;19.40;99.90
5334;DHT22;2689;50.954;7.116;2023-07-09T03:46:02;19.40;99.90
5334;DHT22;2689;50.954;7.116;2023-07-09T03:48:29;19.40;99.90
5334;DHT22;2689;50.954;7.116;2023-07-09T03:50:56;19.40;99.90
5334;DHT22;2689;50.954;7.116;2023-07-09T03:53:23;19.40;99.90
5334;DHT22;2689;50.954;7.116;2023-07-09T03:55:52;19.40;99.90
5334;DHT22;2689;50.954;7.116;2023-07-09T03:58:20;19.50;99.90
5334;DHT22;2689;50.954;7.116;2023-07-09T04:00:47;19.40;99.90
5334;DHT22;2689;50.954;7.116;2023-07-09T04:03:14;19.50;99.90
5334;DHT22;2689;50.954;7.116;2023-07-09T04:05:41;19.50;99.90
5334;DHT22;2689;50.954;7.116;2023-07-09T04:08:08;19.50;99.90
5334;DHT22;2689;50.954;7.116;2023-07-09T04:10:35;19.50;99.90
5334;DHT22;2689;50.954;7.116;2023-07-09T04:13:01;19.50;99.90
5334;DHT22;2689;50.954;7.116;2023-07-09T04:15:30;19.60;99.90
5334;DHT22;2689;50.954;7.116;2023-07-09T04:17:56;19.60;99.90
5334;DHT22;2689;50.954;7.116;2023-07-09T04:20:23;19.60;99.90
5334;DHT22;2689;50.954;7.116;2023-07-09T04:22:50;19.60;99.90
5334;DHT22;2689;50.954;7.116;2023-07-09T04:25:17;19.50;99.90
5334;DHT22;2689;50.954;7.116;2023-07-09T04:27:44;19.60;99.90
5334;DHT22;2689;50.954;7.116;2023-07-09T04:30:12;19.50;99.90
5334;DHT22;2689;50.954;7.116;2023-07-09T04:32:42;19.60;99.90
5334;DHT22;2689;50.954;7.116;2023-07-09T04:35:09;19.70;99.90
5334;DHT22;2689;50.954;7.116;2023-07-09T04:37:37;19.70;99.90
5334;DHT22;2689;50.954;7.116;2023-07-09T04:40:05;19.80;99.90
5334;DHT22;2689;50.954;7.116;2023-07-09T04:42:33;19.90;99.90
5334;DHT22;2689;50.954;7.116;2023-07-09T04:44:59;20.00;99.90
5334;DHT22;2689;50.954;7.116;2023-07-09T04:47:26;20.00;99.90
5334;DHT22;2689;50.954;7.116;2023-07-09T04:49:54;19.90;99.90
5334;DHT22;2689;50.954;7.116;2023-07-09T04:52:21;20.00;99.90
5334;DHT22;2689;50.954;7.116;2023-07-09T04:54:48;20.70;99.90
5334;DHT22;2689;50.954;7.116;2023-07-09T04:57:15;20.20;99.90
5334;DHT22;2689;50.954;7.116;2023-07-09T04:59:42;20.20;99.90
5334;DHT22;2689;50.954;7.116;2023-07-09T05:02:11;20.30;99.90
5334;DHT22;2689;50.954;7.116;2023-07-09T05:04:38;20.30;99.90
5334;DHT22;2689;50.954;7.116;2023-07-09T05:07:06;20.30;99.90
5334;DHT22;2689;50.954;7.116;2023-07-09T05:09:33;20.40;99.90
5334;DHT22;2689;50.954;7.116;2023-07-09T05:12:00;20.50;99.90
5334;DHT22;2689;50.954;7.116;2023-07-09T05:14:27;20.60;99.90
5334;DHT22;2689;50.954;7.116;2023-07-09T05:16:54;20.60;99.90
5334;DHT22;2689;50.954;7.116;2023-07-09T05:19:21;20.80;99.90
5334;DHT22;2689;50.954;7.116;2023-07-09T05:21:48;20.80;99.90
5334;DHT22;2689;50.954;7.116;2023-07-09T05:24:16;20.90;99.90
5334;DHT22;2689;50.954;7.116;2023-07-09T05:26:42;21.00;99.90
5334;DHT22;2689;50.954;7.116;2023-07-09T05:29:09;21.10;99.90
5334;DHT22;2689;50.954;7.116;2023-07-09T05:31:37;21.20;99.90
5334;DHT22;2689;50.954;7.116;2023-07-09T05:34:04;21.20;99.90
5334;DHT22;2689;50.954;7.116;2023-07-09T05:36:31;21.30;99.90
5334;DHT22;2689;50.954;7.116;2023-07-09T05:38:57;21.40;99.90
5334;DHT22;2689;50.954;7.116;2023-07-09T05:41:26;21.40;99.90
5334;DHT22;2689;50.954;7.116;2023-07-09T05:43:52;21.50;99.90
5334;DHT22;2689;50.954;7.116;2023-07-09T05:46:23;21.70;99.90
5334;DHT22;2689;50.954;7.116;2023-07-09T05:48:49;21.80;99.90
5334;DHT22;2689;50.954;7.116;2023-07-09T05:51:16;21.90;99.90
5334;DHT22;2689;50.954;7.116;2023-07-09T05:53:43;22.00;99.90
5334;DHT22;2689;50.954;7.116;2023-07-09T05:56:10;22.00;99.90
5334;DHT22;2689;50.954;7.116;2023-07-09T05:58:38;22.20;99.90
5334;DHT22;2689;50.954;7.116;2023-07-09T06:01:12;22.30;99.90
5334;DHT22;2689;50.954;7.116;2023-07-09T06:03:39;22.30;99.90
5334;DHT22;2689;50.954;7.116;2023-07-09T06:06:06;22.50;99.90
5334;DHT22;2689;50.954;7.116;2023-07-09T06:08:32;22.60;99.90
5334;DHT22;2689;50.954;7.116;2023-07-09T06:11:00;22.70;99.90
5334;DHT22;2689;50.954;7.116;2023-07-09T06:13:28;22.90;99.90
5334;DHT22;2689;50.954;7.116;2023-07-09T06:15:58;22.90;99.90
5334;DHT22;2689;50.954;7.116;2023-07-09T06:18:26;23.00;99.90
5334;DHT22;2689;50.954;7.116;2023-07-09T06:20:58;23.10;99.90
5334;DHT22;2689;50.954;7.116;2023-07-09T06:23:25;23.20;99.90
5334;DHT22;2689;50.954;7.116;2023-07-09T06:25:52;23.40;99.80
5334;DHT22;2689;50.954;7.116;2023-07-09T06:28:21;23.50;99.60
5334;DHT22;2689;50.954;7.116;2023-07-09T06:30:48;23.60;99.30
5334;DHT22;2689;50.954;7.116;2023-07-09T06:33:17;23.80;99.00
5334;DHT22;2689;50.954;7.116;2023-07-09T06:35:48;23.90;98.50
5334;DHT22;2689;50.954;7.116;2023-07-09T06:38:15;24.10;99.00
5334;DHT22;2689;50.954;7.116;2023-07-09T06:40:41;24.30;98.10
5334;DHT22;2689;50.954;7.116;2023-07-09T06:43:08;24.30;97.50
5334;DHT22;2689;50.954;7.116;2023-07-09T06:45:35;24.40;97.30
5334;DHT22;2689;50.954;7.116;2023-07-09T06:48:02;24.50;97.60
5334;DHT22;2689;50.954;7.116;2023-07-09T06:50:33;24.70;96.80
5334;DHT22;2689;50.954;7.116;2023-07-09T06:52:59;24.80;97.10
5334;DHT22;2689;50.954;7.116;2023-07-09T06:55:26;25.00;96.80
5334;DHT22;2689;50.954;7.116;2023-07-09T06:57:53;25.20;96.50
5334;DHT22;2689;50.954;7.116;2023-07-09T07:00:20;25.40;96.20
5334;DHT22;2689;50.954;7.116;2023-07-09T07:02:47;25.60;95.50
5334;DHT22;2689;50.954;7.116;2023-07-09T07:05:14;25.70;95.10
5334;DHT22;2689;50.954;7.116;2023-07-09T07:07:42;25.90;94.80
5334;DHT22;2689;50.954;7.116;2023-07-09T07:10:09;26.00;95.20
5334;DHT22;2689;50.954;7.116;2023-07-09T07:12:42;26.20;94.50
5334;DHT22;2689;50.954;7.116;2023-07-09T07:15:10;26.40;94.20
5334;DHT22;2689;50.954;7.116;2023-07-09T07:17:37;26.60;94.10
5334;DHT22;2689;50.954;7.116;2023-07-09T07:20:05;26.80;93.70
5334;DHT22;2689;50.954;7.116;2023-07-09T07:22:33;26.90;92.80
5334;DHT22;2689;50.954;7.116;2023-07-09T07:25:01;27.00;91.90
5334;DHT22;2689;50.954;7.116;2023-07-09T07:27:28;27.20;92.10
5334;DHT22;2689;50.954;7.116;2023-07-09T07:29:55;27.30;91.60
5334;DHT22;2689;50.954;7.116;2023-07-09T07:32:22;27.40;90.40
5334;DHT22;2689;50.954;7.116;2023-07-09T07:34:48;27.50;90.30
5334;DHT22;2689;50.954;7.116;2023-07-09T07:37:18;27.80;90.50
5334;DHT22;2689;50.954;7.116;2023-07-09T07:39:46;27.90;90.00
5334;DHT22;2689;50.954;7.116;2023-07-09T07:42:14;28.10;89.40
5334;DHT22;2689;50.954;7.116;2023-07-09T07:44:41;28.30;88.90
5334;DHT22;2689;50.954;7.116;2023-07-09T07:47:08;28.50;88.50
5334;DHT22;2689;50.954;7.116;2023-07-09T07:49:35;28.70;87.60
5334;DHT22;2689;50.954;7.116;2023-07-09T07:52:03;28.90;86.70
5334;DHT22;2689;50.954;7.116;2023-07-09T07:54:30;29.00;86.40
5334;DHT22;2689;50.954;7.116;2023-07-09T07:56:57;29.00;85.10
5334;DHT22;2689;50.954;7.116;2023-07-09T07:59:25;29.40;84.50
5334;DHT22;2689;50.954;7.116;2023-07-09T08:01:52;29.60;84.50
5334;DHT22;2689;50.954;7.116;2023-07-09T08:04:19;29.80;83.10
5334;DHT22;2689;50.954;7.116;2023-07-09T08:06:46;29.90;82.20
5334;DHT22;2689;50.954;7.116;2023-07-09T08:09:13;30.10;80.20
5334;DHT22;2689;50.954;7.116;2023-07-09T08:11:39;30.30;79.60
5334;DHT22;2689;50.954;7.116;2023-07-09T08:14:06;30.30;77.80
5334;DHT22;2689;50.954;7.116;2023-07-09T08:16:34;30.50;77.30
5334;DHT22;2689;50.954;7.116;2023-07-09T08:19:01;30.60;75.20
5334;DHT22;2689;50.954;7.116;2023-07-09T08:21:28;30.70;75.40
5334;DHT22;2689;50.954;7.116;2023-07-09T08:23:55;30.70;75.10
5334;DHT22;2689;50.954;7.116;2023-07-09T08:26:21;30.90;75.40
5334;DHT22;2689;50.954;7.116;2023-07-09T08:28:49;31.30;75.10
5334;DHT22;2689;50.954;7.116;2023-07-09T08:31:16;31.30;72.50
5334;DHT22;2689;50.954;7.116;2023-07-09T08:33:47;31.70;71.80
5334;DHT22;2689;50.954;7.116;2023-07-09T08:36:15;31.70;70.30
5334;DHT22;2689;50.954;7.116;2023-07-09T08:38:43;32.00;68.90
5334;DHT22;2689;50.954;7.116;2023-07-09T08:41:26;32.10;68.40
5334;DHT22;2689;50.954;7.116;2023-07-09T08:44:14;31.90;67.00
5334;DHT22;2689;50.954;7.116;2023-07-09T08:46:54;32.00;67.70
5334;DHT22;2689;50.954;7.116;2023-07-09T08:49:33;32.20;66.80
5334;DHT22;2689;50.954;7.116;2023-07-09T08:52:02;32.60;66.80
5334;DHT22;2689;50.954;7.116;2023-07-09T08:54:33;33.00;64.30
5334;DHT22;2689;50.954;7.116;2023-07-09T08:57:08;33.30;63.00
5334;DHT22;2689;50.954;7.116;2023-07-09T08:59:41;34.00;61.60
5334;DHT22;2689;50.954;7.116;2023-07-09T09:02:16;34.60;59.10
5334;DHT22;2689;50.954;7.116;2023-07-09T09:04:49;35.60;58.30
5334;DHT22;2689;50.954;7.116;2023-07-09T09:07:20;36.80;54.10
5334;DHT22;2689;50.954;7.116;2023-07-09T09:09:56;37.40;51.40
5334;DHT22;2689;50.954;7.116;2023-07-09T09:12:26;38.00;50.70
5334;DHT22;2689;50.954;7.116;2023-07-09T09:14:57;39.30;48.60
5334;DHT22;2689;50.954;7.116;2023-07-09T09:17:25;40.60;46.60
5334;DHT22;2689;50.954;7.116;2023-07-09T09:19:57;41.30;44.30
5334;DHT22;2689;50.954;7.116;2023-07-09T09:22:42;41.00;42.60
5334;DHT22;2689;50.954;7.116;2023-07-09T09:25:18;41.10;42.70
5334;DHT22;2689;50.954;7.116;2023-07-09T09:27:47;42.00;42.30
5334;DHT22;2689;50.954;7.116;2023-07-09T09:30:15;42.90;40.00
5334;DHT22;2689;50.954;7.116;2023-07-09T09:32:44;43.10;39.10
5334;DHT22;2689;50.954;7.116;2023-07-09T09:35:14;43.80;38.10
5334;DHT22;2689;50.954;7.116;2023-07-09T09:37:49;44.50;35.50
5334;DHT22;2689;50.954;7.116;2023-07-09T09:40:17;44.80;35.40
5334;DHT22;2689;50.954;7.116;2023-07-09T09:42:44;44.90;34.30
5334;DHT22;2689;50.954;7.116;2023-07-09T09:45:14;44.70;34.20
5334;DHT22;2689;50.954;7.116;2023-07-09T09:47:42;44.30;34.20
5334;DHT22;2689;50.954;7.116;2023-07-09T09:50:14;44.60;34.90
5334;DHT22;2689;50.954;7.116;2023-07-09T09:52:43;45.20;33.90
5334;DHT22;2689;50.954;7.116;2023-07-09T09:55:12;45.50;32.80
5334;DHT22;2689;50.954;7.116;2023-07-09T09:57:39;45.80;32.40
5334;DHT22;2689;50.954;7.116;2023-07-09T10:00:13;46.10;31.50
5334;DHT22;2689;50.954;7.116;2023-07-09T10:02:42;46.10;31.10
5334;DHT22;2689;50.954;7.116;2023-07-09T10:05:12;45.90;31.80
5334;DHT22;2689;50.954;7.116;2023-07-09T10:07:43;45.70;31.20
5334;DHT22;2689;50.954;7.116;2023-07-09T10:10:20;45.50;31.30
5334;DHT22;2689;50.954;7.116;2023-07-09T10:12:51;45.90;30.80
5334;DHT22;2689;50.954;7.116;2023-07-09T10:15:29;46.50;31.50
5334;DHT22;2689;50.954;7.116;2023-07-09T10:18:00;46.00;30.40
5334;DHT22;2689;50.954;7.116;2023-07-09T10:20:33;46.00;31.50
5334;DHT22;2689;50.954;7.116;2023-07-09T10:23:16;46.50;30.30
5334;DHT22;2689;50.954;7.116;2023-07-09T10:25:51;47.10;29.40
5334;DHT22;2689;50.954;7.116;2023-07-09T10:28:31;47.30;29.10
5334;DHT22;2689;50.954;7.116;2023-07-09T10:31:04;47.80;29.00
5334;DHT22;2689;50.954;7.116;2023-07-09T10:33:41;48.00;28.40
5334;DHT22;2689;50.954;7.116;2023-07-09T10:36:21;48.30;28.60
5334;DHT22;2689;50.954;7.116;2023-07-09T10:38:55;48.80;27.80
5334;DHT22;2689;50.954;7.116;2023-07-09T10:41:24;49.00;26.70
5334;DHT22;2689;50.954;7.116;2023-07-09T10:43:56;48.80;27.60
5334;DHT22;2689;50.954;7.116;2023-07-09T10:46:27;49.20;27.70
5334;DHT22;2689;50.954;7.116;2023-07-09T10:48:55;49.30;26.70
5334;DHT22;2689;50.954;7.116;2023-07-09T10:51:27;49.00;26.70
5334;DHT22;2689;50.954;7.116;2023-07-09T10:54:00;48.70;26.70
5334;DHT22;2689;50.954;7.116;2023-07-09T10:56:31;48.70;26.00
5334;DHT22;2689;50.954;7.116;2023-07-09T10:59:04;48.90;26.00
5334;DHT22;2689;50.954;7.116;2023-07-09T11:01:36;49.00;26.10
5334;DHT22;2689;50.954;7.116;2023-07-09T11:04:06;48.80;25.90
5334;DHT22;2689;50.954;7.116;2023-07-09T11:06:38;49.10;26.30
5334;DHT22;2689;50.954;7.116;2023-07-09T11:09:13;49.00;26.20
5334;DHT22;2689;50.954;7.116;2023-07-09T11:11:43;49.00;26.00
5334;DHT22;2689;50.954;7.116;2023-07-09T11:14:21;48.90;26.50
5334;DHT22;2689;50.954;7.116;2023-07-09T11:16:53;49.00;26.30
5334;DHT22;2689;50.954;7.116;2023-07-09T11:19:22;49.00;26.00
5334;DHT22;2689;50.954;7.116;2023-07-09T11:22:03;49.00;26.00
5334;DHT22;2689;50.954;7.116;2023-07-09T11:24:35;48.90;25.70
5334;DHT22;2689;50.954;7.116;2023-07-09T11:27:02;48.40;25.40
5334;DHT22;2689;50.954;7.116;2023-07-09T11:29:29;48.00;25.00
5334;DHT22;2689;50.954;7.116;2023-07-09T11:32:08;47.70;25.10
5334;DHT22;2689;50.954;7.116;2023-07-09T11:34:44;47.30;24.90
5334;DHT22;2689;50.954;7.116;2023-07-09T11:37:13;47.30;25.50
5334;DHT22;2689;50.954;7.116;2023-07-09T11:39:46;47.10;25.90
5334;DHT22;2689;50.954;7.116;2023-07-09T11:42:46;47.00;25.80
5334;DHT22;2689;50.954;7.116;2023-07-09T11:45:16;46.40;26.40
5334;DHT22;2689;50.954;7.116;2023-07-09T11:47:47;45.70;26.40
5334;DHT22;2689;50.954;7.116;2023-07-09T11:50:23;45.40;27.40
5334;DHT22;2689;50.954;7.116;2023-07-09T11:52:53;44.80;28.30
5334;DHT22;2689;50.954;7.116;2023-07-09T11:55:26;44.30;28.60
5334;DHT22;2689;50.954;7.116;2023-07-09T11:57:55;44.20;27.90
5334;DHT22;2689;50.954;7.116;2023-07-09T12:00:23;44.10;29.00
5334;DHT22;2689;50.954;7.116;2023-07-09T12:02:50;43.90;29.00
5334;DHT22;2689;50.954;7.116;2023-07-09T12:05:23;43.80;29.70
5334;DHT22;2689;50.954;7.116;2023-07-09T12:07:52;44.20;29.90
5334;DHT22;2689;50.954;7.116;2023-07-09T12:10:22;44.40;28.80
5334;DHT22;2689;50.954;7.116;2023-07-09T12:12:55;44.40;28.50
5334;DHT22;2689;50.954;7.116;2023-07-09T12:15:25;43.90;28.80
5334;DHT22;2689;50.954;7.116;2023-07-09T12:17:57;43.70;29.60
5334;DHT22;2689;50.954;7.116;2023-07-09T12:20:24;43.00;29.80
5334;DHT22;2689;50.954;7.116;2023-07-09T12:22:51;42.10;30.30
5334;DHT22;2689;50.954;7.116;2023-07-09T12:25:22;41.40;31.70
5334;DHT22;2689;50.954;7.116;2023-07-09T12:27:49;40.40;32.40
5334;DHT22;2689;50.954;7.116;2023-07-09T12:30:18;39.80;34.60
5334;DHT22;2689;50.954;7.116;2023-07-09T12:32:45;39.30;35.00
5334;DHT22;2689;50.954;7.116;2023-07-09T12:35:13;39.00;35.80
5334;DHT22;2689;50.954;7.116;2023-07-09T12:37:42;38.60;34.60
5334;DHT22;2689;50.954;7.116;2023-07-09T12:40:12;38.10;34.80
5334;DHT22;2689;50.954;7.116;2023-07-09T12:42:40;37.60;35.50
5334;DHT22;2689;50.954;7.116;2023-07-09T12:45:14;37.30;36.00
5334;DHT22;2689;50.954;7.116;2023-07-09T12:47:43;37.10;36.50
5334;DHT22;2689;50.954;7.116;2023-07-09T12:50:26;37.00;37.10
5334;DHT22;2689;50.954;7.116;2023-07-09T12:52:55;36.70;37.50
5334;DHT22;2689;50.954;7.116;2023-07-09T12:55:25;36.60;37.80
5334;DHT22;2689;50.954;7.116;2023-07-09T12:57:54;36.50;37.10
5334;DHT22;2689;50.954;7.116;2023-07-09T13:00:27;36.30;37.80
5334;DHT22;2689;50.954;7.116;2023-07-09T13:05:57;36.40;38.10
5334;DHT22;2689;50.954;7.116;2023-07-09T13:08:29;36.50;38.00
5334;DHT22;2689;50.954;7.116;2023-07-09T13:11:14;36.50;38.50
5334;DHT22;2689;50.954;7.116;2023-07-09T13:13:42;36.70;38.00
5334;DHT22;2689;50.954;7.116;2023-07-09T13:16:20;36.70;38.10
5334;DHT22;2689;50.954;7.116;2023-07-09T13:18:48;36.80;38.30
5334;DHT22;2689;50.954;7.116;2023-07-09T13:21:20;36.60;38.20
5334;DHT22;2689;50.954;7.116;2023-07-09T13:23:48;36.60;38.70
5334;DHT22;2689;50.954;7.116;2023-07-09T13:26:15;36.40;38.20
5334;DHT22;2689;50.954;7.116;2023-07-09T13:28:42;36.10;38.90
5334;DHT22;2689;50.954;7.116;2023-07-09T13:31:13;36.00;38.80
5334;DHT22;2689;50.954;7.116;2023-07-09T13:33:41;35.90;39.20
5334;DHT22;2689;50.954;7.116;2023-07-09T13:36:08;36.00;39.40
5334;DHT22;2689;50.954;7.116;2023-07-09T13:38:36;36.00;39.10
5334;DHT22;2689;50.954;7.116;2023-07-09T13:41:11;35.90;39.50
5334;DHT22;2689;50.954;7.116;2023-07-09T13:43:42;35.80;39.70
5334;DHT22;2689;50.954;7.116;2023-07-09T13:46:09;35.70;40.50
5334;DHT22;2689;50.954;7.116;2023-07-09T13:48:38;35.70;41.30
5334;DHT22;2689;50.954;7.116;2023-07-09T13:51:14;35.70;41.50
5334;DHT22;2689;50.954;7.116;2023-07-09T13:53:54;35.60;41.40
5334;DHT22;2689;50.954;7.116;2023-07-09T13:59:16;35.30;42.90
5334;DHT22;2689;50.954;7.116;2023-07-09T14:01:55;35.10;42.80
5334;DHT22;2689;50.954;7.116;2023-07-09T14:04:24;34.80;43.90
5334;DHT22;2689;50.954;7.116;2023-07-09T14:06:51;34.30;43.90
5334;DHT22;2689;50.954;7.116;2023-07-09T14:09:20;33.20;42.30
5334;DHT22;2689;50.954;7.116;2023-07-09T14:12:04;31.90;46.60
5334;DHT22;2689;50.954;7.116;2023-07-09T14:14:32;30.20;55.30
5334;DHT22;2689;50.954;7.116;2023-07-09T14:17:21;28.80;58.50
5334;DHT22;2689;50.954;7.116;2023-07-09T14:29:59;27.50;68.80
5334;DHT22;2689;50.954;7.116;2023-07-09T14:32:32;27.40;69.60
5334;DHT22;2689;50.954;7.116;2023-07-09T14:35:00;27.40;72.20
5334;DHT22;2689;50.954;7.116;2023-07-09T14:37:28;27.40;73.10
5334;DHT22;2689;50.954;7.116;2023-07-09T14:39:55;27.40;70.40
5334;DHT22;2689;50.954;7.116;2023-07-09T14:42:22;27.20;69.30
5334;DHT22;2689;50.954;7.116;2023-07-09T14:44:49;27.20;62.60
5334;DHT22;2689;50.954;7.116;2023-07-09T14:47:20;27.70;61.30
5334;DHT22;2689;50.954;7.116;2023-07-09T14:49:50;28.10;61.70
5334;DHT22;2689;50.954;7.116;2023-07-09T14:52:20;28.20;61.70
5334;DHT22;2689;50.954;7.116;2023-07-09T14:54:47;28.20;62.50
5334;DHT22;2689;50.954;7.116;2023-07-09T14:57:19;28.00;64.30
5334;DHT22;2689;50.954;7.116;2023-07-09T14:59:47;27.90;65.30
5334;DHT22;2689;50.954;7.116;2023-07-09T15:02:32;27.80;65.80
5334;DHT22;2689;50.954;7.116;2023-07-09T15:05:00;27.80;67.00
5334;DHT22;2689;50.954;7.116;2023-07-09T15:07:29;27.70;68.20
5334;DHT22;2689;50.954;7.116;2023-07-09T15:09:57;27.60;69.60
5334;DHT22;2689;50.954;7.116;2023-07-09T15:12:28;27.50;71.20
5334;DHT22;2689;50.954;7.116;2023-07-09T15:15:01;27.40;73.10
5334;DHT22;2689;50.954;7.116;2023-07-09T15:17:30;27.20;74.70
5334;DHT22;2689;50.954;7.116;2023-07-09T15:19:57;27.20;76.30
5334;DHT22;2689;50.954;7.116;2023-07-09T15:22:29;27.10;77.60
5334;DHT22;2689;50.954;7.116;2023-07-09T15:24:57;27.00;78.80
5334;DHT22;2689;50.954;7.116;2023-07-09T15:27:24;27.00;80.00
5334;DHT22;2689;50.954;7.116;2023-07-09T15:29:51;26.90;81.20
5334;DHT22;2689;50.954;7.116;2023-07-09T15:32:17;26.90;82.30
5334;DHT22;2689;50.954;7.116;2023-07-09T15:34:46;26.80;83.90
5334;DHT22;2689;50.954;7.116;2023-07-09T15:37:15;26.70;85.70
5334;DHT22;2689;50.954;7.116;2023-07-09T15:39:43;26.60;87.20
5334;DHT22;2689;50.954;7.116;2023-07-09T15:42:11;26.60;88.50
5334;DHT22;2689;50.954;7.116;2023-07-09T15:44:39;26.60;90.00
5334;DHT22;2689;50.954;7.116;2023-07-09T15:47:15;26.60;89.80
5334;DHT22;2689;50.954;7.116;2023-07-09T15:49:43;26.60;90.50
5334;DHT22;2689;50.954;7.116;2023-07-09T15:52:11;26.70;90.50
5334;DHT22;2689;50.954;7.116;2023-07-09T15:54:40;26.70;90.50
5334;DHT22;2689;50.954;7.116;2023-07-09T15:57:11;26.80;90.20
5334;DHT22;2689;50.954;7.116;2023-07-09T15:59:40;26.80;90.40
5334;DHT22;2689;50.954;7.116;2023-07-09T16:02:10;26.70;90.70
5334;DHT22;2689;50.954;7.116;2023-07-09T16:04:38;26.70;91.10
5334;DHT22;2689;50.954;7.116;2023-07-09T16:07:07;26.60;91.90
5334;DHT22;2689;50.954;7.116;2023-07-09T16:09:36;26.70;92.20
5334;DHT22;2689;50.954;7.116;2023-07-09T16:12:11;26.70;92.50
5334;DHT22;2689;50.954;7.116;2023-07-09T16:14:39;26.70;92.90
5334;DHT22;2689;50.954;7.116;2023-07-09T16:17:10;26.70;93.10
5334;DHT22;2689;50.954;7.116;2023-07-09T16:19:37;26.60;94.40
5334;DHT22;2689;50.954;7.116;2023-07-09T16:22:05;26.50;95.10
5334;DHT22;2689;50.954;7.116;2023-07-09T16:24:34;26.50;96.10
5334;DHT22;2689;50.954;7.116;2023-07-09T16:27:06;26.40;96.30
5334;DHT22;2689;50.954;7.116;2023-07-09T16:29:36;26.20;97.60
5334;DHT22;2689;50.954;7.116;2023-07-09T16:32:03;26.10;99.00